Time;durP1;ratioP1;P1;durP2;ratioP2;P2;SDS_P1;SDS_P2;PMS_P1;PMS_P2;Temp;Humidity;BMP_temperature;BMP_pressure;BME280_temperature;BME280_humidity;BME280_pressure;Samples;Min_cycle;Max_cycle;Signal;HPM_P1;HPM_P2
2023/08/20 00:02:09;;;;;;;10.47;9.40;;;28.70;60.50;;;;;;5013642;28;20209;-47
2023/08/20 00:04:36;;;;;;;10.30;9.50;;;28.60;60.80;;;;;;5014377;28;20236;-46
2023/08/20 00:07:02;;;;;;;12.03;10.13;;;28.50;61.10;;;;;;5010805;28;20427;-47
2023/08/20 00:09:29;;;;;;;10.77;9.67;;;28.50;61.60;;;;;;5013842;28;20524;-46
2023/08/20 00:11:54;;;;;;;11.17;10.27;;;28.50;61.60;;;;;;5013033;28;20190;-47
2023/08/20 00:14:20;;;;;;;10.70;9.83;;;28.60;61.20;;;;;;5014146;28;20469;-49
2023/08/20 00:16:46;;;;;;;11.10;10.20;;;28.60;61.30;;;;;;5023725;28;20268;-48
2023/08/20 00:19:12;;;;;;;11.57;10.50;;;28.50;61.60;;;;;;5013921;28;20244;-46
2023/08/20 00:21:42;;;;;;;11.43;10.43;;;28.40;61.90;;;;;;5013318;28;20433;-46
2023/08/20 00:24:08;;;;;;;11.60;10.50;;;28.40;61.90;;;;;;5013517;28;20198;-46
2023/08/20 00:26:34;;;;;;;10.40;9.60;;;28.50;61.70;;;;;;5013159;28;20447;-46
2023/08/20 00:29:00;;;;;;;11.50;10.43;;;28.50;61.50;;;;;;5013877;28;20437;-47
2023/08/20 00:31:25;;;;;;;11.07;10.10;;;28.50;61.70;;;;;;5012930;28;20432;-46
2023/08/20 00:33:51;;;;;;;10.87;9.37;;;28.50;61.70;;;;;;5012121;28;20194;-47
2023/08/20 00:36:16;;;;;;;11.20;10.10;;;28.50;61.50;;;;;;5013191;28;20638;-47
2023/08/20 00:38:42;;;;;;;11.63;10.40;;;28.50;61.40;;;;;;5013621;28;20552;-48
2023/08/20 00:41:08;;;;;;;12.40;11.47;;;28.60;61.30;;;;;;5013224;28;20272;-45
2023/08/20 00:43:33;;;;;;;11.50;9.83;;;28.60;61.30;;;;;;5013650;28;20217;-46
2023/08/20 00:45:59;;;;;;;11.60;10.43;;;28.40;61.80;;;;;;5012880;28;20595;-48
2023/08/20 00:48:25;;;;;;;10.67;9.77;;;28.40;62.10;;;;;;5013314;28;20190;-47
2023/08/20 00:50:51;;;;;;;11.10;10.00;;;28.30;61.90;;;;;;5012666;28;20456;-46
2023/08/20 00:53:17;;;;;;;12.63;11.10;;;28.40;61.70;;;;;;5013561;28;20464;-45
2023/08/20 00:55:43;;;;;;;11.27;10.27;;;28.50;61.50;;;;;;5012864;28;20234;-48
2023/08/20 00:58:10;;;;;;;12.93;11.73;;;28.50;61.30;;;;;;5012823;28;20429;-46
2023/08/20 01:00:36;;;;;;;11.77;10.73;;;28.50;61.30;;;;;;5011557;28;20928;-48
2023/08/20 01:03:01;;;;;;;11.70;10.60;;;28.50;61.30;;;;;;5013696;28;21659;-45
2023/08/20 01:05:32;;;;;;;11.77;10.73;;;28.50;61.20;;;;;;5013066;28;20247;-45
2023/08/20 01:08:37;;;;;;;11.10;10.10;;;28.40;61.40;;;;;;5012814;28;20193;-48
2023/08/20 01:11:28;;;;;;;13.03;10.17;;;28.40;61.60;;;;;;5011271;28;20445;-45
2023/08/20 01:13:55;;;;;;;13.80;10.90;;;28.30;62.00;;;;;;5004437;28;20444;-46
2023/08/20 01:16:20;;;;;;;11.20;9.97;;;28.20;62.70;;;;;;5015467;28;20499;-45
2023/08/20 01:18:47;;;;;;;10.83;10.03;;;28.00;63.20;;;;;;5012609;28;20432;-46
2023/08/20 01:21:39;;;;;;;11.90;10.80;;;28.00;63.60;;;;;;5012421;28;20186;-45
2023/08/20 01:24:13;;;;;;;11.97;10.90;;;27.90;64.00;;;;;;5012966;28;20826;-46
2023/08/20 01:26:54;;;;;;;11.60;10.30;;;27.80;64.70;;;;;;5001236;28;20852;-45
2023/08/20 01:29:20;;;;;;;12.20;11.20;;;27.70;65.10;;;;;;5000667;28;20494;-46
2023/08/20 01:31:47;;;;;;;11.90;10.90;;;27.70;65.40;;;;;;5012306;28;20425;-46
2023/08/20 01:34:13;;;;;;;11.50;10.50;;;27.60;65.30;;;;;;5012406;28;20464;-46
2023/08/20 01:36:38;;;;;;;11.67;10.57;;;27.60;65.30;;;;;;5012218;28;20551;-46
2023/08/20 01:39:04;;;;;;;11.77;10.67;;;27.50;65.80;;;;;;5013012;28;20541;-45
2023/08/20 01:41:30;;;;;;;12.03;10.80;;;27.40;66.00;;;;;;5012417;28;20680;-47
2023/08/20 01:43:56;;;;;;;9.97;9.20;;;27.40;66.00;;;;;;5012469;28;20428;-45
2023/08/20 01:46:22;;;;;;;12.30;11.10;;;27.50;65.70;;;;;;5011914;28;20542;-46
2023/08/20 01:48:47;;;;;;;14.67;11.20;;;27.60;65.30;;;;;;5012962;28;20682;-46
2023/08/20 01:51:13;;;;;;;13.67;10.70;;;27.70;64.90;;;;;;5012275;28;20189;-45
2023/08/20 01:53:39;;;;;;;10.70;9.87;;;27.70;64.50;;;;;;5010729;28;20190;-46
2023/08/20 01:56:09;;;;;;;10.80;9.73;;;27.70;64.20;;;;;;5012090;28;20618;-45
2023/08/20 01:58:36;;;;;;;10.83;9.73;;;27.70;64.60;;;;;;5012599;28;20194;-47
2023/08/20 02:01:01;;;;;;;13.57;11.00;;;27.70;64.80;;;;;;5012378;28;20421;-45
2023/08/20 02:03:27;;;;;;;11.27;10.27;;;27.60;65.10;;;;;;5012389;28;20487;-46
2023/08/20 02:05:53;;;;;;;10.83;10.03;;;27.50;65.60;;;;;;5012156;28;20208;-46
2023/08/20 02:08:18;;;;;;;12.37;11.27;;;27.40;65.80;;;;;;5012583;28;20193;-46
2023/08/20 02:10:44;;;;;;;11.83;10.60;;;27.30;65.90;;;;;;5012319;28;20209;-52
2023/08/20 02:13:09;;;;;;;13.50;12.43;;;27.30;66.20;;;;;;5012049;28;20201;-46
2023/08/20 02:15:35;;;;;;;10.80;9.80;;;27.20;66.20;;;;;;5017804;28;20267;-45
2023/08/20 02:18:01;;;;;;;12.23;11.13;;;27.20;66.70;;;;;;5015955;28;20716;-47
2023/08/20 02:20:27;;;;;;;11.87;10.87;;;27.10;66.90;;;;;;5011033;28;20202;-46
2023/08/20 02:22:52;;;;;;;13.77;10.87;;;26.90;67.80;;;;;;5011593;28;20194;-46
2023/08/20 02:25:18;;;;;;;12.00;11.00;;;26.80;68.00;;;;;;5009868;28;20202;-47
2023/08/20 02:27:43;;;;;;;12.03;10.70;;;27.00;67.70;;;;;;5012046;28;20193;-46
2023/08/20 02:30:10;;;;;;;12.77;10.23;;;27.00;67.20;;;;;;5014673;28;20212;-46
2023/08/20 02:32:35;;;;;;;11.10;10.13;;;27.00;67.10;;;;;;5015304;28;20727;-45
2023/08/20 02:35:01;;;;;;;12.10;10.83;;;27.10;66.70;;;;;;5015872;28;20575;-45
2023/08/20 02:37:26;;;;;;;11.90;10.90;;;27.10;66.20;;;;;;5015512;28;20643;-46
2023/08/20 02:39:52;;;;;;;11.13;10.10;;;27.20;66.10;;;;;;5016154;28;20197;-45
2023/08/20 02:42:17;;;;;;;12.03;10.90;;;27.10;65.90;;;;;;5015138;28;20194;-47
2023/08/20 02:44:43;;;;;;;11.87;10.87;;;26.90;67.20;;;;;;5015730;28;20200;-46
2023/08/20 02:47:09;;;;;;;11.93;10.90;;;26.70;68.00;;;;;;5013431;28;20237;-47
2023/08/20 02:49:34;;;;;;;12.30;11.30;;;26.70;68.50;;;;;;5015773;28;20197;-46
2023/08/20 02:52:00;;;;;;;11.93;10.83;;;26.70;68.30;;;;;;5015152;28;20197;-47
2023/08/20 02:54:26;;;;;;;13.07;11.87;;;26.70;68.70;;;;;;5015449;28;20221;-45
2023/08/20 02:56:51;;;;;;;12.50;11.50;;;26.70;68.30;;;;;;5015288;28;20197;-47
2023/08/20 02:59:17;;;;;;;13.50;11.50;;;26.70;68.00;;;;;;5015764;28;20197;-46
2023/08/20 03:01:42;;;;;;;12.30;11.20;;;26.70;68.80;;;;;;5013665;28;20252;-45
2023/08/20 03:04:08;;;;;;;16.23;11.70;;;26.60;68.40;;;;;;5015272;28;20685;-46
2023/08/20 03:06:33;;;;;;;10.97;10.07;;;26.40;69.30;;;;;;5015015;28;20218;-48
2023/08/20 03:08:59;;;;;;;12.67;11.67;;;26.40;69.50;;;;;;5015436;28;20205;-45
2023/08/20 03:11:24;;;;;;;12.63;11.63;;;26.40;69.70;;;;;;5014744;28;20595;-46
2023/08/20 03:13:50;;;;;;;11.93;10.83;;;26.40;70.20;;;;;;5013479;28;20329;-47
2023/08/20 03:16:16;;;;;;;13.57;11.93;;;26.40;69.20;;;;;;5017438;28;20597;-45
2023/08/20 03:18:41;;;;;;;12.43;11.30;;;26.40;69.50;;;;;;5015096;28;20186;-47
2023/08/20 03:21:07;;;;;;;12.37;11.13;;;26.40;69.60;;;;;;5014945;28;20666;-46
2023/08/20 03:23:32;;;;;;;12.27;11.13;;;26.50;69.30;;;;;;5015324;28;20212;-46
2023/08/20 03:25:59;;;;;;;12.00;11.00;;;26.30;70.20;;;;;;5014295;28;20204;-45
2023/08/20 03:28:24;;;;;;;11.93;10.83;;;26.40;70.00;;;;;;5014889;28;20198;-47
2023/08/20 03:30:50;;;;;;;12.93;11.83;;;26.30;69.80;;;;;;5014387;28;20433;-46
2023/08/20 03:33:16;;;;;;;12.47;11.27;;;26.40;69.60;;;;;;5014781;28;20204;-46
2023/08/20 03:35:42;;;;;;;12.83;10.60;;;26.50;69.40;;;;;;5014353;28;20717;-47
2023/08/20 03:38:08;;;;;;;13.63;12.33;;;26.40;70.20;;;;;;5013368;28;20509;-52
2023/08/20 03:40:33;;;;;;;11.57;10.57;;;26.50;69.20;;;;;;5014293;28;20248;-45
2023/08/20 03:42:59;;;;;;;12.27;11.20;;;26.40;69.40;;;;;;5014202;28;20229;-45
2023/08/20 03:45:25;;;;;;;13.87;11.33;;;26.50;69.20;;;;;;5014461;28;20681;-45
2023/08/20 03:47:51;;;;;;;12.00;10.90;;;26.60;68.80;;;;;;5013963;28;20265;-45
2023/08/20 03:50:16;;;;;;;12.27;11.37;;;26.60;68.30;;;;;;5014481;28;20839;-46
2023/08/20 03:52:42;;;;;;;12.03;10.80;;;26.70;68.00;;;;;;5014015;28;20194;-46
2023/08/20 03:55:08;;;;;;;11.87;10.77;;;26.70;68.00;;;;;;5014048;28;20236;-48
2023/08/20 03:57:33;;;;;;;12.80;10.60;;;26.70;68.00;;;;;;5014108;28;20280;-45
2023/08/20 03:59:59;;;;;;;13.50;12.20;;;26.70;67.70;;;;;;5014591;28;20586;-46
2023/08/20 04:02:24;;;;;;;12.90;11.80;;;26.60;67.80;;;;;;5014025;28;20198;-45
2023/08/20 04:04:50;;;;;;;12.53;11.33;;;26.40;68.80;;;;;;5012437;28;20277;-45
2023/08/20 04:07:16;;;;;;;11.40;10.50;;;26.30;70.00;;;;;;5014214;28;20587;-45
2023/08/20 04:09:42;;;;;;;11.67;10.77;;;26.20;69.40;;;;;;5014013;28;20240;-46
2023/08/20 04:12:08;;;;;;;12.30;11.23;;;26.30;69.20;;;;;;5013790;28;20673;-46
2023/08/20 04:14:34;;;;;;;11.77;10.77;;;26.20;69.30;;;;;;5013853;28;20516;-45
2023/08/20 04:16:59;;;;;;;13.03;11.93;;;26.10;69.60;;;;;;5022937;28;20197;-46
2023/08/20 04:19:25;;;;;;;11.87;10.83;;;25.90;70.80;;;;;;5013921;28;20497;-45
2023/08/20 04:21:51;;;;;;;12.10;10.87;;;25.90;71.30;;;;;;5013452;28;20190;-45
2023/08/20 04:24:16;;;;;;;11.90;10.90;;;25.90;71.30;;;;;;5014143;28;20208;-45
2023/08/20 04:26:43;;;;;;;14.30;12.07;;;26.00;70.60;;;;;;5013249;28;20429;-48
2023/08/20 04:29:09;;;;;;;11.83;10.70;;;26.20;70.00;;;;;;5002404;28;20202;-46
2023/08/20 04:31:35;;;;;;;13.23;11.90;;;26.20;69.90;;;;;;5011290;28;20421;-47
2023/08/20 04:34:00;;;;;;;11.80;10.80;;;26.10;70.10;;;;;;5013724;28;20198;-46
2023/08/20 04:36:26;;;;;;;12.93;11.67;;;26.20;69.60;;;;;;5013170;28;20201;-48
2023/08/20 04:38:51;;;;;;;12.60;11.30;;;26.30;69.30;;;;;;5013932;28;20546;-49
2023/08/20 04:41:17;;;;;;;12.17;11.27;;;26.20;69.00;;;;;;5013247;28;20194;-45
2023/08/20 04:43:43;;;;;;;12.90;11.60;;;26.30;68.90;;;;;;5013426;28;20202;-45
2023/08/20 04:46:08;;;;;;;12.83;10.90;;;26.30;68.70;;;;;;5012724;28;20190;-49
2023/08/20 04:48:34;;;;;;;13.30;12.10;;;26.20;69.50;;;;;;5013551;28;20614;-46
2023/08/20 04:51:00;;;;;;;11.77;10.57;;;26.10;70.10;;;;;;5012864;28;20200;-46
2023/08/20 04:53:26;;;;;;;12.90;11.80;;;26.10;69.60;;;;;;5012765;28;20763;-46
2023/08/20 04:55:51;;;;;;;12.33;11.20;;;26.00;70.00;;;;;;5012687;28;20484;-46
2023/08/20 04:58:17;;;;;;;13.30;12.00;;;26.10;70.10;;;;;;5011944;28;20248;-47
2023/08/20 05:00:42;;;;;;;11.47;10.37;;;26.00;70.50;;;;;;5013170;28;20606;-46
2023/08/20 05:03:08;;;;;;;12.03;10.93;;;25.90;71.30;;;;;;5012693;28;20198;-46
2023/08/20 05:05:34;;;;;;;12.87;11.77;;;25.90;71.30;;;;;;5012997;28;20202;-46
2023/08/20 05:07:59;;;;;;;12.10;11.10;;;25.90;71.10;;;;;;5012571;28;20186;-48
2023/08/20 05:10:25;;;;;;;12.00;10.90;;;25.90;71.40;;;;;;5009601;28;20530;-46
2023/08/20 05:12:51;;;;;;;12.10;11.17;;;25.90;71.80;;;;;;5012226;28;20265;-45
2023/08/20 05:15:16;;;;;;;13.57;11.83;;;25.90;71.30;;;;;;5015592;28;20278;-46
2023/08/20 05:17:42;;;;;;;13.10;12.00;;;25.90;71.60;;;;;;5012414;28;20429;-46
2023/08/20 05:20:09;;;;;;;12.63;11.53;;;26.10;71.30;;;;;;5013254;28;20638;-46
2023/08/20 05:22:34;;;;;;;12.83;11.60;;;26.10;71.10;;;;;;5012407;28;20613;-47
2023/08/20 05:25:00;;;;;;;11.87;10.87;;;26.10;70.80;;;;;;5011466;28;20508;-45
2023/08/20 05:27:25;;;;;;;12.00;10.63;;;26.20;70.50;;;;;;5012509;28;20553;-45
2023/08/20 05:29:51;;;;;;;11.97;10.97;;;26.20;70.20;;;;;;5012280;28;20290;-46
2023/08/20 05:32:16;;;;;;;12.30;11.27;;;26.10;71.10;;;;;;5012301;28;20189;-46
2023/08/20 05:34:42;;;;;;;12.80;11.70;;;25.70;73.50;;;;;;5012490;28;20224;-45
2023/08/20 05:37:08;;;;;;;11.93;10.93;;;25.30;75.80;;;;;;5012161;28;20198;-45
2023/08/20 05:39:41;;;;;;;11.20;10.23;;;25.30;76.50;;;;;;5012668;28;20198;-46
2023/08/20 05:42:06;;;;;;;16.43;11.90;;;25.40;76.40;;;;;;5012071;28;20570;-48
2023/08/20 05:44:32;;;;;;;12.10;11.10;;;25.40;75.90;;;;;;5012929;28;20437;-45
2023/08/20 05:46:58;;;;;;;13.27;12.07;;;25.60;75.60;;;;;;5012429;28;20230;-46
2023/08/20 05:49:24;;;;;;;13.17;12.00;;;25.60;75.20;;;;;;5012455;28;20285;-45
2023/08/20 05:51:49;;;;;;;12.57;11.33;;;25.80;74.50;;;;;;5010569;28;20500;-47
2023/08/20 05:54:15;;;;;;;12.20;11.20;;;26.10;73.50;;;;;;5012634;28;20232;-45
2023/08/20 05:56:41;;;;;;;12.80;11.60;;;26.20;72.50;;;;;;5012368;28;20190;-48
2023/08/20 05:59:06;;;;;;;12.07;11.00;;;26.20;72.00;;;;;;5012417;28;20205;-45
2023/08/20 06:01:32;;;;;;;12.90;11.80;;;26.40;71.80;;;;;;5012050;28;20277;-45
2023/08/20 06:03:57;;;;;;;12.37;11.30;;;26.50;71.20;;;;;;5012632;28;20186;-46
2023/08/20 06:06:23;;;;;;;13.40;12.00;;;26.50;70.80;;;;;;5016155;28;20297;-45
2023/08/20 06:08:49;;;;;;;13.30;12.10;;;26.70;69.90;;;;;;5016372;28;20190;-47
2023/08/20 06:11:14;;;;;;;12.30;11.30;;;26.70;69.50;;;;;;5012078;28;20205;-45
2023/08/20 06:13:40;;;;;;;13.37;11.97;;;26.90;69.00;;;;;;5016493;28;20608;-46
2023/08/20 06:16:07;;;;;;;12.27;11.27;;;27.10;68.50;;;;;;5016621;28;20233;-46
2023/08/20 06:18:32;;;;;;;13.53;12.13;;;27.00;68.50;;;;;;5014672;28;20194;-46
2023/08/20 06:20:58;;;;;;;12.73;11.73;;;26.90;69.60;;;;;;5015703;28;21131;-45
2023/08/20 06:23:24;;;;;;;12.97;11.70;;;26.80;69.90;;;;;;5016187;28;20205;-45
2023/08/20 06:25:50;;;;;;;12.80;11.53;;;27.10;69.40;;;;;;5015568;28;20240;-47
2023/08/20 06:28:16;;;;;;;12.13;11.07;;;27.10;68.50;;;;;;5015294;28;20662;-45
2023/08/20 06:30:42;;;;;;;12.17;10.87;;;27.00;69.70;;;;;;5015919;28;20433;-46
2023/08/20 06:33:08;;;;;;;14.47;11.93;;;27.10;69.20;;;;;;5015561;28;20416;-46
2023/08/20 06:35:34;;;;;;;12.13;11.03;;;27.40;68.80;;;;;;5016007;28;20286;-45
2023/08/20 06:37:59;;;;;;;14.53;12.00;;;27.70;67.30;;;;;;5015371;28;20225;-45
2023/08/20 06:40:25;;;;;;;11.97;10.80;;;28.00;66.00;;;;;;5015811;28;20912;-46
2023/08/20 06:42:50;;;;;;;12.17;11.20;;;28.20;65.40;;;;;;5015403;28;20271;-46
2023/08/20 06:45:16;;;;;;;12.60;11.50;;;28.50;63.90;;;;;;5014419;28;20196;-45
2023/08/20 06:47:42;;;;;;;12.90;11.80;;;28.70;62.90;;;;;;5015049;28;20244;-45
2023/08/20 06:50:08;;;;;;;11.30;10.40;;;28.90;62.40;;;;;;5015950;28;20190;-45
2023/08/20 06:52:33;;;;;;;12.27;10.97;;;29.10;62.60;;;;;;5015162;28;20186;-45
2023/08/20 06:54:59;;;;;;;11.47;10.57;;;29.20;61.80;;;;;;5015485;28;20549;-46
2023/08/20 06:57:24;;;;;;;13.40;12.30;;;29.40;61.80;;;;;;5014872;28;20474;-46
2023/08/20 06:59:50;;;;;;;11.83;10.70;;;29.50;61.20;;;;;;5015754;28;20649;-45
2023/08/20 07:02:15;;;;;;;11.00;9.90;;;29.60;60.70;;;;;;5015189;28;20193;-46
2023/08/20 07:04:41;;;;;;;12.33;11.13;;;29.70;60.20;;;;;;5015501;28;20197;-48
2023/08/20 07:07:07;;;;;;;12.60;11.60;;;29.90;59.90;;;;;;5014691;28;20608;-46
2023/08/20 07:09:33;;;;;;;12.90;11.60;;;30.00;59.60;;;;;;5014903;28;20198;-51
2023/08/20 07:11:59;;;;;;;12.73;11.60;;;30.10;59.20;;;;;;5013613;28;20435;-46
2023/08/20 07:14:25;;;;;;;13.00;11.90;;;30.20;59.20;;;;;;5015154;28;20931;-49
2023/08/20 07:16:50;;;;;;;15.17;13.87;;;30.30;59.20;;;;;;5014046;28;20645;-45
2023/08/20 07:19:16;;;;;;;13.20;12.20;;;30.50;58.70;;;;;;5015291;28;20190;-46
2023/08/20 07:21:41;;;;;;;12.77;11.57;;;30.60;58.30;;;;;;5014627;28;20204;-45
2023/08/20 07:24:07;;;;;;;12.13;11.13;;;30.70;58.00;;;;;;5015327;28;20193;-46
2023/08/20 07:26:33;;;;;;;12.67;11.57;;;30.80;58.00;;;;;;5002279;28;20195;-46
2023/08/20 07:28:59;;;;;;;13.30;12.03;;;30.90;58.60;;;;;;5015110;28;20190;-46
2023/08/20 07:31:32;;;;;;;12.20;11.30;;;31.10;58.60;;;;;;5014143;28;20589;-50
2023/08/20 07:33:59;;;;;;;13.00;11.90;;;31.30;57.00;;;;;;5014762;28;20455;-46
2023/08/20 07:36:25;;;;;;;12.03;11.03;;;31.50;56.70;;;;;;5012257;28;20490;-46
2023/08/20 07:38:52;;;;;;;13.77;12.43;;;31.60;56.50;;;;;;5015015;28;20460;-46
2023/08/20 07:41:21;;;;;;;13.17;12.07;;;31.80;55.90;;;;;;5014254;28;20750;-46
2023/08/20 07:43:48;;;;;;;12.70;11.47;;;31.80;55.40;;;;;;5014668;28;20436;-48
2023/08/20 07:46:15;;;;;;;13.00;11.67;;;32.00;55.10;;;;;;5014177;28;20440;-47
2023/08/20 07:48:41;;;;;;;13.27;12.00;;;32.00;55.20;;;;;;5014630;28;20440;-46
2023/08/20 07:51:06;;;;;;;11.73;10.77;;;32.10;55.00;;;;;;5014209;28;20796;-46
2023/08/20 07:53:33;;;;;;;12.97;11.97;;;32.20;54.80;;;;;;5014771;28;20194;-47
2023/08/20 07:56:00;;;;;;;12.60;11.40;;;32.30;54.60;;;;;;5013758;28;20314;-46
2023/08/20 07:58:26;;;;;;;13.30;12.17;;;32.30;54.40;;;;;;5014837;28;20483;-46
2023/08/20 08:00:52;;;;;;;11.67;10.67;;;32.50;54.70;;;;;;5013997;28;20463;-46
2023/08/20 08:03:17;;;;;;;12.37;11.13;;;32.60;55.00;;;;;;5012252;28;20504;-46
2023/08/20 08:05:49;;;;;;;12.40;11.30;;;32.80;53.80;;;;;;5014277;28;20553;-47
2023/08/20 08:08:18;;;;;;;12.97;11.73;;;33.00;53.40;;;;;;5014235;28;20193;-46
2023/08/20 08:10:45;;;;;;;11.57;10.47;;;33.00;53.00;;;;;;5014301;28;20516;-47
2023/08/20 08:13:18;;;;;;;13.07;11.97;;;33.20;53.20;;;;;;5013511;28;20425;-47
2023/08/20 08:15:44;;;;;;;11.93;10.83;;;33.30;53.10;;;;;;5020586;28;20472;-46
2023/08/20 08:18:09;;;;;;;13.43;12.27;;;33.40;52.10;;;;;;5014009;28;20432;-46
2023/08/20 08:20:35;;;;;;;12.50;11.50;;;33.30;52.00;;;;;;5014169;28;20201;-46
2023/08/20 08:23:01;;;;;;;13.60;12.23;;;33.10;52.80;;;;;;5013291;28;20264;-46
2023/08/20 08:25:27;;;;;;;12.20;11.10;;;33.30;52.50;;;;;;5013957;28;20576;-46
2023/08/20 08:27:53;;;;;;;11.90;10.90;;;33.40;52.30;;;;;;5004217;28;20439;-46
2023/08/20 08:30:19;;;;;;;13.10;12.00;;;33.40;52.40;;;;;;5012371;28;20508;-46
2023/08/20 08:32:45;;;;;;;12.57;11.67;;;33.50;52.10;;;;;;5009179;28;20269;-47
2023/08/20 08:35:10;;;;;;;12.43;11.17;;;33.60;51.90;;;;;;5013603;28;20756;-46
2023/08/20 08:37:36;;;;;;;12.10;11.00;;;33.90;51.50;;;;;;5013217;28;20225;-46
2023/08/20 08:40:06;;;;;;;12.17;11.13;;;34.10;51.30;;;;;;5013492;28;21000;-47
2023/08/20 08:42:33;;;;;;;11.43;10.37;;;34.30;50.30;;;;;;5012680;28;20433;-47
2023/08/20 08:45:00;;;;;;;12.53;11.47;;;34.40;50.60;;;;;;5013735;28;20464;-46
2023/08/20 08:47:26;;;;;;;11.67;10.73;;;34.50;50.00;;;;;;5012749;28;20857;-48
2023/08/20 08:49:54;;;;;;;12.90;10.60;;;34.70;49.00;;;;;;5013439;28;20437;-49
2023/08/20 08:52:22;;;;;;;11.57;10.63;;;34.70;48.90;;;;;;5012619;28;20432;-46
2023/08/20 08:54:48;;;;;;;12.13;11.10;;;34.80;49.00;;;;;;5013428;28;20952;-47
2023/08/20 08:57:15;;;;;;;11.50;10.23;;;34.90;48.50;;;;;;5011425;28;20425;-46
2023/08/20 08:59:42;;;;;;;11.47;10.37;;;35.00;48.30;;;;;;5013299;28;20630;-47
2023/08/20 09:02:10;;;;;;;12.57;11.60;;;35.00;48.50;;;;;;5012576;28;20455;-46
2023/08/20 09:04:40;;;;;;;11.40;10.30;;;35.10;48.30;;;;;;5013418;28;20425;-46
2023/08/20 09:07:10;;;;;;;11.23;10.00;;;35.20;47.90;;;;;;5012716;28;20794;-47
2023/08/20 09:09:36;;;;;;;10.23;9.40;;;35.30;48.40;;;;;;5013360;28;20429;-48
2023/08/20 09:12:19;;;;;;;11.43;10.53;;;35.40;48.20;;;;;;5012614;28;20433;-47
2023/08/20 09:14:51;;;;;;;11.83;10.40;;;35.50;47.20;;;;;;5013062;28;20488;-46
2023/08/20 09:17:19;;;;;;;11.50;10.30;;;35.70;46.90;;;;;;5025293;28;20425;-47
2023/08/20 09:19:45;;;;;;;11.30;10.23;;;35.90;46.20;;;;;;5012849;28;20530;-47
2023/08/20 09:22:12;;;;;;;10.60;9.47;;;35.90;45.50;;;;;;5010631;28;20431;-47
2023/08/20 09:24:46;;;;;;;10.73;9.83;;;36.00;45.30;;;;;;5013295;28;20436;-47
2023/08/20 09:27:14;;;;;;;10.70;9.90;;;36.00;45.30;;;;;;5012093;28;20494;-46
2023/08/20 09:29:51;;;;;;;10.47;9.53;;;36.00;45.60;;;;;;5012980;28;20515;-48
2023/08/20 09:32:17;;;;;;;11.60;10.57;;;36.10;45.20;;;;;;5012326;28;20538;-46
2023/08/20 09:34:43;;;;;;;10.73;9.80;;;36.20;44.90;;;;;;5012786;28;20547;-48
2023/08/20 09:37:10;;;;;;;10.57;9.50;;;36.30;44.60;;;;;;5012177;28;20585;-49
2023/08/20 09:39:36;;;;;;;11.30;10.30;;;36.40;45.40;;;;;;5012775;28;20272;-48
2023/08/20 09:42:02;;;;;;;12.10;10.93;;;36.50;45.20;;;;;;5012350;28;20567;-48
2023/08/20 09:44:36;;;;;;;10.67;9.73;;;36.70;45.70;;;;;;5012735;28;20193;-47
2023/08/20 09:47:04;;;;;;;9.53;8.73;;;36.90;45.00;;;;;;5011895;28;20464;-47
2023/08/20 09:49:33;;;;;;;11.57;10.57;;;37.10;44.80;;;;;;5011273;28;20428;-48
2023/08/20 09:52:02;;;;;;;11.23;10.37;;;37.30;44.10;;;;;;5012110;28;20519;-47
2023/08/20 09:54:43;;;;;;;10.63;9.63;;;37.50;43.90;;;;;;5012602;28;20425;-47
2023/08/20 09:57:18;;;;;;;11.07;10.10;;;37.80;43.40;;;;;;5012131;28;20523;-47
2023/08/20 09:59:44;;;;;;;10.57;9.53;;;37.80;42.50;;;;;;5012188;28;20945;-47
2023/08/20 10:02:13;;;;;;;11.40;10.43;;;37.90;42.10;;;;;;5011999;28;20436;-47
2023/08/20 10:04:39;;;;;;;11.10;10.00;;;37.90;42.30;;;;;;5012626;28;20450;-47
2023/08/20 10:07:05;;;;;;;11.73;9.10;;;37.80;42.00;;;;;;5012098;28;20507;-49
2023/08/20 10:09:31;;;;;;;10.67;9.57;;;37.90;42.40;;;;;;5012497;28;20555;-47
2023/08/20 10:11:57;;;;;;;10.87;9.93;;;38.10;41.60;;;;;;5012022;28;20539;-49
2023/08/20 10:14:22;;;;;;;11.10;10.00;;;38.00;41.40;;;;;;5012348;28;20192;-47
2023/08/20 10:16:48;;;;;;;10.03;9.23;;;38.10;41.10;;;;;;5016733;28;20197;-47
2023/08/20 10:19:16;;;;;;;9.70;8.90;;;38.10;40.70;;;;;;5012329;28;20189;-48
2023/08/20 10:21:46;;;;;;;9.93;9.03;;;38.20;40.90;;;;;;5011551;28;20610;-48
2023/08/20 10:24:18;;;;;;;9.90;9.10;;;38.40;41.80;;;;;;5012285;28;20495;-49
2023/08/20 10:26:46;;;;;;;9.50;8.70;;;38.50;40.50;;;;;;5006497;28;20436;-47
2023/08/20 10:29:41;;;;;;;9.77;9.07;;;38.70;39.80;;;;;;5012029;28;20440;-48
2023/08/20 10:32:10;;;;;;;10.23;9.17;;;38.90;39.60;;;;;;5011660;28;20446;-47
2023/08/20 10:34:38;;;;;;;10.70;9.80;;;39.10;38.70;;;;;;5011905;28;20955;-47
2023/08/20 10:37:30;;;;;;;10.40;9.47;;;39.20;39.10;;;;;;5011723;28;20463;-47
2023/08/20 10:39:56;;;;;;;9.83;8.93;;;39.40;39.00;;;;;;5007436;28;20444;-47
2023/08/20 10:42:26;;;;;;;10.70;10.00;;;39.50;38.20;;;;;;5010015;28;20444;-48
2023/08/20 10:44:59;;;;;;;11.53;10.20;;;39.60;38.20;;;;;;5012171;28;20432;-49
2023/08/20 10:47:25;;;;;;;11.30;10.43;;;39.70;37.90;;;;;;5011061;28;20476;-47
2023/08/20 10:49:53;;;;;;;10.20;9.37;;;39.70;37.70;;;;;;5012231;28;20857;-46
2023/08/20 10:52:19;;;;;;;10.47;9.40;;;39.70;37.80;;;;;;5015149;28;20579;-47
2023/08/20 10:54:45;;;;;;;9.30;8.60;;;39.70;38.20;;;;;;5015265;28;20836;-47
2023/08/20 10:57:11;;;;;;;10.10;9.40;;;39.90;37.60;;;;;;5014975;28;20478;-47
2023/08/20 10:59:40;;;;;;;10.17;9.30;;;39.90;37.10;;;;;;5015779;28;20246;-47
2023/08/20 11:02:13;;;;;;;9.63;8.73;;;40.00;36.50;;;;;;5013527;28;20576;-47
2023/08/20 11:04:40;;;;;;;9.57;8.67;;;40.10;36.40;;;;;;5015610;28;20424;-48
2023/08/20 11:07:06;;;;;;;9.57;8.87;;;40.20;36.10;;;;;;5014555;28;20471;-48
2023/08/20 11:09:31;;;;;;;11.73;8.43;;;40.40;35.90;;;;;;5013942;28;20833;-47
2023/08/20 11:11:58;;;;;;;9.87;8.90;;;40.50;35.40;;;;;;5014828;28;20284;-47
2023/08/20 11:14:24;;;;;;;9.87;8.70;;;40.80;34.20;;;;;;5015297;28;20555;-47
2023/08/20 11:16:50;;;;;;;9.90;8.87;;;40.80;34.70;;;;;;5026975;28;20430;-47
2023/08/20 11:19:20;;;;;;;8.47;7.70;;;40.80;35.10;;;;;;5015175;28;20217;-47
2023/08/20 11:21:47;;;;;;;9.53;8.83;;;40.90;35.40;;;;;;5014648;28;20201;-47
2023/08/20 11:24:13;;;;;;;8.07;7.30;;;41.10;34.40;;;;;;5015252;28;20432;-49
2023/08/20 11:26:40;;;;;;;8.50;7.90;;;41.30;33.00;;;;;;5014506;28;20436;-47
2023/08/20 11:29:06;;;;;;;9.13;8.20;;;41.00;32.20;;;;;;5007652;28;20562;-48
2023/08/20 11:31:32;;;;;;;8.60;7.93;;;40.90;33.10;;;;;;5014300;28;20431;-47
2023/08/20 11:33:58;;;;;;;10.37;9.47;;;40.90;33.50;;;;;;5015000;28;20424;-48
2023/08/20 11:36:23;;;;;;;9.93;9.03;;;41.10;34.30;;;;;;5012692;28;20745;-48
2023/08/20 11:38:53;;;;;;;9.07;8.37;;;41.10;33.50;;;;;;5014865;28;20193;-47
2023/08/20 11:41:20;;;;;;;9.40;8.60;;;41.20;33.20;;;;;;5014213;28;20209;-47
2023/08/20 11:43:46;;;;;;;8.87;8.17;;;41.20;33.10;;;;;;5014667;28;20420;-47
2023/08/20 11:46:21;;;;;;;9.20;8.40;;;41.40;32.80;;;;;;5013888;28;20428;-47
2023/08/20 11:49:06;;;;;;;8.43;7.90;;;41.40;32.70;;;;;;5014378;28;20927;-47
2023/08/20 11:51:39;;;;;;;8.30;7.60;;;41.50;33.00;;;;;;5014117;28;20432;-47
2023/08/20 11:54:10;;;;;;;9.70;7.73;;;41.50;32.10;;;;;;5014555;28;20428;-47
2023/08/20 11:56:38;;;;;;;9.03;8.00;;;41.50;32.40;;;;;;5013557;28;20570;-48
2023/08/20 11:59:04;;;;;;;9.20;8.60;;;41.50;32.60;;;;;;5014599;28;20770;-48
2023/08/20 12:01:32;;;;;;;8.50;7.80;;;41.70;32.00;;;;;;5011276;28;20482;-47
2023/08/20 12:04:04;;;;;;;8.93;8.33;;;41.70;32.60;;;;;;5013790;28;20189;-47
2023/08/20 12:06:31;;;;;;;9.33;8.43;;;41.70;32.40;;;;;;5013798;28;20193;-49
2023/08/20 12:08:57;;;;;;;9.60;8.90;;;41.80;32.00;;;;;;5014408;28;20196;-47
2023/08/20 12:11:30;;;;;;;8.70;7.90;;;41.80;32.50;;;;;;5013542;28;20205;-47
2023/08/20 12:13:56;;;;;;;13.63;8.37;;;41.90;31.90;;;;;;5014274;28;20487;-47
2023/08/20 12:16:24;;;;;;;8.30;7.60;;;41.80;31.30;;;;;;5019406;28;20260;-47
2023/08/20 12:18:50;;;;;;;8.13;7.33;;;41.80;31.90;;;;;;5014347;28;20634;-48
2023/08/20 12:21:16;;;;;;;10.03;9.23;;;41.80;32.30;;;;;;5013171;28;20523;-50
2023/08/20 12:23:41;;;;;;;11.90;10.37;;;42.00;31.70;;;;;;5014047;28;20271;-54
2023/08/20 12:26:07;;;;;;;10.00;9.10;;;42.00;32.10;;;;;;5013066;28;20205;-54
2023/08/20 12:28:34;;;;;;;8.57;7.80;;;42.10;32.10;;;;;;5012461;28;20197;-53
2023/08/20 12:30:59;;;;;;;8.07;7.47;;;42.10;31.40;;;;;;5013349;28;20645;-53